createdAt,value
2022-09-20T00:01:11.123Z,76.02
2022-09-20T00:03:41.127Z,75.24
2022-09-20T00:06:10.696Z,73.61
2022-09-20T00:08:38.808Z,75.89
2022-09-20T00:11:10.185Z,75.25
2022-09-20T00:13:38.840Z,74.43
2022-09-20T00:16:12.000Z,73.21
2022-09-20T00:18:39.459Z,74.22
2022-09-20T00:21:07.396Z,73.84
2022-09-20T00:23:35.460Z,73.97
2022-09-20T00:26:04.359Z,74.98
2022-09-20T00:28:32.865Z,74.17
2022-09-20T00:31:00.351Z,72.67
2022-09-20T00:33:47.642Z,73.68
2022-09-20T00:36:15.685Z,72.50
2022-09-20T00:38:43.042Z,74.23
2022-09-20T00:41:10.739Z,75.85
2022-09-20T00:43:45.858Z,74.80
2022-09-20T00:46:28.049Z,76.14
2022-09-20T00:48:59.996Z,76.70
2022-09-20T00:51:29.986Z,76.24
2022-09-20T00:53:59.966Z,75.54
2022-09-20T00:56:33.665Z,76.13
2022-09-20T00:59:19.325Z,75.73
2022-09-20T01:01:49.588Z,75.99
2022-09-20T01:04:18.367Z,72.77
2022-09-20T01:06:46.076Z,74.41
2022-09-20T01:09:13.395Z,72.74
2022-09-20T01:11:41.176Z,71.89
2022-09-20T01:14:08.861Z,71.97
2022-09-20T01:16:37.503Z,74.37
2022-09-20T01:19:18.908Z,71.26
2022-09-20T01:21:47.488Z,71.45
2022-09-20T01:24:21.097Z,71.75
2022-09-20T01:27:02.294Z,73.89
2022-09-20T01:29:57.916Z,73.64
2022-09-20T01:32:35.800Z,74.33
2022-09-20T01:35:04.123Z,72.86
2022-09-20T01:38:02.843Z,71.16
2022-09-20T01:40:47.532Z,72.20
2022-09-20T01:43:31.119Z,75.64
2022-09-20T01:46:04.996Z,74.17
2022-09-20T01:48:40.157Z,74.15
2022-09-20T01:51:22.225Z,73.89
2022-09-20T01:54:08.149Z,74.41
2022-09-20T01:56:49.289Z,75.45
2022-09-20T01:59:26.477Z,76.49
2022-09-20T02:01:54.215Z,76.11
2022-09-20T02:04:33.766Z,75.05
2022-09-20T02:07:42.154Z,75.74
2022-09-20T02:10:20.391Z,77.88
2022-09-20T02:12:56.290Z,77.03
2022-09-20T02:15:45.631Z,76.94
2022-09-20T02:18:47.882Z,73.46
2022-09-20T02:21:34.398Z,73.49
2022-09-20T02:24:20.165Z,74.59
2022-09-20T02:26:50.661Z,73.14
2022-09-20T02:29:33.511Z,71.08
2022-09-20T02:32:13.605Z,71.41
2022-09-20T02:35:19.579Z,70.44
2022-09-20T02:38:11.520Z,72.51
2022-09-20T02:40:47.760Z,71.71
2022-09-20T02:43:41.782Z,74.92
2022-09-20T02:46:14.233Z,74.04
2022-09-20T02:48:57.087Z,74.35
2022-09-20T02:51:31.037Z,74.37
2022-09-20T02:54:23.527Z,70.42
2022-09-20T02:57:03.243Z,69.60
2022-09-20T02:59:52.372Z,71.16
2022-09-20T03:02:27.374Z,71.99
2022-09-20T03:05:17.385Z,70.42
2022-09-20T03:08:03.373Z,69.71
2022-09-20T03:10:51.856Z,70.74
2022-09-20T03:13:41.170Z,71.57
2022-09-20T03:16:36.894Z,72.66
2022-09-20T03:19:14.459Z,72.98
2022-09-20T03:22:02.068Z,73.15
2022-09-20T03:25:05.022Z,73.12
2022-09-20T03:27:57.795Z,71.34
2022-09-20T03:30:43.645Z,72.35
2022-09-20T03:33:16.952Z,74.16
2022-09-20T03:36:06.480Z,71.91
2022-09-20T03:39:05.205Z,74.45
2022-09-20T03:42:01.849Z,72.44
2022-09-20T03:44:44.580Z,72.83
2022-09-20T03:47:21.420Z,74.09
2022-09-20T03:50:12.165Z,72.61
2022-09-20T03:52:51.952Z,73.52
2022-09-20T03:55:38.282Z,72.40
2022-09-20T03:58:22.875Z,70.81
2022-09-20T04:00:56.666Z,72.79
2022-09-20T04:03:37.360Z,72.30
2022-09-20T04:06:18.668Z,71.97
2022-09-20T04:09:01.641Z,71.18
2022-09-20T04:11:41.762Z,73.01
2022-09-20T04:14:18.314Z,71.82
2022-09-20T04:16:53.408Z,71.03
2022-09-20T04:19:42.660Z,70.47
2022-09-20T04:22:10.113Z,70.57
2022-09-20T04:24:48.430Z,70.21
2022-09-20T04:27:22.972Z,70.44
2022-09-20T04:29:53.109Z,70.96
2022-09-20T04:32:41.211Z,71.41
2022-09-20T04:35:36.703Z,71.96
2022-09-20T04:38:08.970Z,72.32
2022-09-20T04:41:16.569Z,71.94
2022-09-20T04:44:09.384Z,72.71
2022-09-20T04:47:01.411Z,74.89
2022-09-20T04:49:59.239Z,74.29
2022-09-20T04:52:46.907Z,74.45
2022-09-20T04:55:35.457Z,75.98
2022-09-20T04:58:28.161Z,75.56
2022-09-20T05:00:55.416Z,73.79
2022-09-20T05:04:00.385Z,74.22
2022-09-20T05:07:04.990Z,72.98
2022-09-20T05:09:50.914Z,74.62
2022-09-20T05:12:37.211Z,73.88
2022-09-20T05:15:34.183Z,72.87
2022-09-20T05:18:26.855Z,70.94
2022-09-20T05:21:06.769Z,70.55
2022-09-20T05:23:55.584Z,71.84
2022-09-20T05:26:28.855Z,72.76
2022-09-20T05:29:14.455Z,73.20
2022-09-20T05:32:19.278Z,75.56
2022-09-20T05:35:24.158Z,72.83
2022-09-20T05:38:06.955Z,73.02
2022-09-20T05:41:03.253Z,69.75
2022-09-20T05:43:37.007Z,70.04
2022-09-20T05:46:45.329Z,67.89
2022-09-20T05:49:18.878Z,68.00
2022-09-20T05:51:54.962Z,66.99
2022-09-20T05:54:43.837Z,68.49
2022-09-20T05:57:47.923Z,64.83
2022-09-20T06:00:20.931Z,66.82
2022-09-20T06:02:54.060Z,67.84
2022-09-20T06:05:50.826Z,65.53
2022-09-20T06:08:41.837Z,63.70
2022-09-20T06:11:13.934Z,63.11
2022-09-20T06:14:03.917Z,60.55
2022-09-20T06:16:53.177Z,62.16
2022-09-20T06:19:29.513Z,61.46
2022-09-20T06:22:03.511Z,61.77
2022-09-20T06:24:45.358Z,64.28
2022-09-20T06:27:20.195Z,65.84
2022-09-20T06:29:53.363Z,67.11
2022-09-20T06:32:20.700Z,64.98
2022-09-20T06:34:48.930Z,64.64
2022-09-20T06:37:50.348Z,61.97
2022-09-20T06:40:56.219Z,63.93
2022-09-20T06:43:23.644Z,65.79
2022-09-20T06:45:51.292Z,65.37
2022-09-20T06:48:19.267Z,65.21
2022-09-20T06:50:46.676Z,63.79
2022-09-20T06:53:26.646Z,64.16
2022-09-20T06:55:53.994Z,62.44
2022-09-20T06:58:21.577Z,63.18
2022-09-20T07:00:48.999Z,64.80
2022-09-20T07:03:16.351Z,64.32
2022-09-20T07:05:43.949Z,63.14
2022-09-20T07:08:12.028Z,63.04
2022-09-20T07:10:39.633Z,65.63
2022-09-20T07:13:07.233Z,65.41
2022-09-20T07:15:35.027Z,64.79
2022-09-20T07:18:02.340Z,67.27
2022-09-20T07:20:29.924Z,67.32
2022-09-20T07:22:57.242Z,68.06
2022-09-20T07:25:24.595Z,66.61
2022-09-20T07:27:52.202Z,68.15
2022-09-20T07:30:20.474Z,67.61
2022-09-20T07:32:47.809Z,67.22
2022-09-20T07:35:15.423Z,67.16
2022-09-20T07:37:42.798Z,68.74
2022-09-20T07:40:11.096Z,69.16
2022-09-20T07:42:38.941Z,68.80
2022-09-20T07:45:07.355Z,69.92
2022-09-20T07:47:35.557Z,69.50
2022-09-20T07:50:03.992Z,68.86
2022-09-20T07:52:31.394Z,70.26
2022-09-20T07:54:58.730Z,68.99
2022-09-20T07:57:26.430Z,67.74
2022-09-20T07:59:53.782Z,68.74
2022-09-20T08:02:21.209Z,70.36
2022-09-20T08:04:49.984Z,67.90
2022-09-20T08:07:17.351Z,69.49
2022-09-20T08:09:44.691Z,65.85
2022-09-20T08:15:01.866Z,64.16
2022-09-20T08:17:29.516Z,64.70
2022-09-20T08:19:56.894Z,64.61
2022-09-20T08:22:24.541Z,64.17
2022-09-20T08:24:52.254Z,64.10
2022-09-20T08:27:19.895Z,64.03
2022-09-20T08:29:47.210Z,64.83
2022-09-20T08:32:15.085Z,63.33
2022-09-20T08:34:42.455Z,65.41
2022-09-20T08:37:09.797Z,62.00
2022-09-20T08:42:42.059Z,60.04
2022-09-20T08:45:22.442Z,62.27
2022-09-20T08:47:58.659Z,62.22
2022-09-20T08:50:26.973Z,60.94
2022-09-20T08:53:00.247Z,63.70
2022-09-20T08:55:36.423Z,62.82
2022-09-20T08:58:08.586Z,63.71
2022-09-20T09:00:38.610Z,61.70
2022-09-20T09:03:10.596Z,61.95
2022-09-20T09:05:42.893Z,62.61
2022-09-20T09:08:28.748Z,61.10
2022-09-20T09:11:09.464Z,61.70
2022-09-20T09:13:51.382Z,60.50
2022-09-20T09:16:27.226Z,61.69
2022-09-20T09:18:57.811Z,60.69
2022-09-20T09:21:28.546Z,60.93
2022-09-20T09:24:19.361Z,62.81
2022-09-20T09:26:46.962Z,63.27
2022-09-20T09:29:14.194Z,60.87
2022-09-20T09:31:41.664Z,57.95
2022-09-20T09:34:29.444Z,63.12
2022-09-20T09:36:58.264Z,59.43
2022-09-20T09:39:29.130Z,59.26
2022-09-20T09:42:00.893Z,60.91
2022-09-20T09:44:30.729Z,58.08
2022-09-20T09:46:58.241Z,61.17
2022-09-20T09:49:36.250Z,59.38
2022-09-20T09:52:04.810Z,59.53
2022-09-20T09:54:41.540Z,58.30
2022-09-20T09:57:49.572Z,57.50
2022-09-20T10:00:22.231Z,58.19
2022-09-20T10:03:07.567Z,58.86
2022-09-20T10:05:58.893Z,57.29
2022-09-20T10:08:35.461Z,58.04
2022-09-20T10:11:10.217Z,58.75
2022-09-20T10:13:40.590Z,57.53
2022-09-20T10:16:39.887Z,57.34
2022-09-20T10:19:13.506Z,55.46
2022-09-20T10:21:48.779Z,55.81
2022-09-20T10:24:30.856Z,56.27
2022-09-20T10:27:13.125Z,55.39
2022-09-20T10:30:11.237Z,55.41
2022-09-20T10:32:46.004Z,55.43
2022-09-20T10:35:38.075Z,54.77
2022-09-20T10:38:08.401Z,55.14
2022-09-20T10:41:13.828Z,55.89
2022-09-20T10:44:10.313Z,53.05
2022-09-20T10:47:21.562Z,54.33
2022-09-20T10:49:50.933Z,53.46
2022-09-20T10:52:43.082Z,51.81
2022-09-20T10:55:27.073Z,50.84
2022-09-20T10:58:13.764Z,51.10
2022-09-20T11:00:43.146Z,51.81
2022-09-20T11:03:38.436Z,51.84
2022-09-20T11:06:11.696Z,54.89
2022-09-20T11:08:40.084Z,57.60
2022-09-20T11:11:17.084Z,56.23
2022-09-20T11:13:47.455Z,56.26
2022-09-20T11:16:18.674Z,59.13
2022-09-20T11:19:00.669Z,60.88
2022-09-20T11:21:40.323Z,63.91
2022-09-20T11:24:36.393Z,63.87
2022-09-20T11:27:20.651Z,66.08
2022-09-20T11:30:03.528Z,63.94
2022-09-20T11:32:36.720Z,64.90
2022-09-20T11:35:14.924Z,62.05
2022-09-20T11:37:47.644Z,58.72
2022-09-20T11:40:23.733Z,62.11
2022-09-20T11:42:52.682Z,60.95
2022-09-20T11:45:24.007Z,60.26
2022-09-20T11:48:19.643Z,58.13
2022-09-20T11:50:56.780Z,57.29
2022-09-20T11:53:49.818Z,59.02
2022-09-20T11:56:20.724Z,58.56
2022-09-20T11:58:50.354Z,57.92
2022-09-20T12:01:30.146Z,58.83
2022-09-20T12:04:27.869Z,60.03
2022-09-20T12:07:10.640Z,59.10
2022-09-20T12:09:43.006Z,58.66
2022-09-20T12:12:32.178Z,57.51
2022-09-20T12:15:01.329Z,56.60
2022-09-20T12:17:46.740Z,54.08
2022-09-20T12:20:35.504Z,57.18
2022-09-20T12:23:43.417Z,54.43
2022-09-20T12:26:20.926Z,54.56
2022-09-20T12:28:55.155Z,53.20
2022-09-20T12:31:26.338Z,52.88
2022-09-20T12:34:03.016Z,53.43
2022-09-20T12:36:34.288Z,53.37
2022-09-20T12:39:17.631Z,51.93
2022-09-20T12:41:54.236Z,54.63
2022-09-20T12:44:41.071Z,51.72
2022-09-20T12:47:11.286Z,52.51
2022-09-20T12:50:06.391Z,53.44
2022-09-20T12:53:03.973Z,50.93
2022-09-20T12:55:55.073Z,49.56
2022-09-20T12:58:26.190Z,53.29
2022-09-20T13:00:59.219Z,53.33
2022-09-20T13:03:36.718Z,54.29
2022-09-20T13:06:07.223Z,55.23
2022-09-20T13:09:01.410Z,53.51
2022-09-20T13:11:43.929Z,52.04
2022-09-20T13:14:15.154Z,52.78
2022-09-20T13:17:02.582Z,50.74
2022-09-20T13:19:33.383Z,54.21
2022-09-20T13:22:02.580Z,52.90
2022-09-20T13:24:33.712Z,53.50
2022-09-20T13:27:06.533Z,53.75
2022-09-20T13:29:42.343Z,56.29
2022-09-20T13:32:17.000Z,56.04
2022-09-20T13:34:45.729Z,57.66
2022-09-20T13:37:23.723Z,56.58
2022-09-20T13:39:55.019Z,58.81
2022-09-20T13:42:22.922Z,57.30
2022-09-20T13:44:50.829Z,57.65
2022-09-20T13:47:32.404Z,54.39
2022-09-20T13:50:16.936Z,54.43
2022-09-20T13:52:46.731Z,54.68
2022-09-20T13:55:37.613Z,56.90
2022-09-20T13:58:33.414Z,56.24
2022-09-20T14:01:03.331Z,57.20
2022-09-20T14:03:32.838Z,55.98
2022-09-20T14:06:07.507Z,53.81
2022-09-20T14:08:35.079Z,52.59
2022-09-20T14:11:20.143Z,52.79
2022-09-20T14:13:52.269Z,53.89
2022-09-20T14:16:20.843Z,54.04
2022-09-20T14:18:49.020Z,55.05
2022-09-20T14:21:26.019Z,53.78
2022-09-20T14:24:02.124Z,56.09
2022-09-20T14:26:37.802Z,56.65
2022-09-20T14:29:39.944Z,55.16
2022-09-20T14:32:12.144Z,58.17
2022-09-20T14:34:40.169Z,57.71
2022-09-20T14:37:13.469Z,57.63
2022-09-20T14:39:49.205Z,55.71
2022-09-20T14:42:40.006Z,54.16
2022-09-20T14:45:08.347Z,54.48
2022-09-20T14:47:52.571Z,54.57
2022-09-20T14:50:24.635Z,56.26
2022-09-20T14:53:10.935Z,52.75
2022-09-20T14:55:40.372Z,50.33
2022-09-20T14:58:15.223Z,51.65
2022-09-20T15:00:47.536Z,53.20
2022-09-20T15:03:16.781Z,53.15
2022-09-20T15:05:46.832Z,52.93
2022-09-20T15:08:15.477Z,53.46
2022-09-20T15:10:43.028Z,52.76
2022-09-20T15:13:11.441Z,53.13
2022-09-20T15:15:38.902Z,53.83
2022-09-20T15:18:16.266Z,55.03
2022-09-20T15:20:43.869Z,55.57
2022-09-20T15:23:11.218Z,55.19
2022-09-20T15:25:38.565Z,53.53
2022-09-20T15:28:07.741Z,52.94
2022-09-20T15:30:35.305Z,55.34
2022-09-20T15:33:03.241Z,53.35
2022-09-20T15:35:30.962Z,54.55
2022-09-20T15:37:58.322Z,55.28
2022-09-20T15:40:25.739Z,54.56
2022-09-20T15:42:58.160Z,55.69
2022-09-20T15:45:26.643Z,55.56
2022-09-20T15:47:58.196Z,55.22
2022-09-20T15:50:26.026Z,54.96
2022-09-20T15:52:57.969Z,55.82
2022-09-20T15:55:27.121Z,54.12
2022-09-20T15:57:55.790Z,54.63
2022-09-20T16:00:23.634Z,56.82
2022-09-20T16:02:51.232Z,57.72
2022-09-20T16:05:18.550Z,57.76
2022-09-20T16:07:47.163Z,57.38
2022-09-20T16:10:15.346Z,57.27
2022-09-20T16:12:42.721Z,58.57
2022-09-20T16:15:10.666Z,56.76
2022-09-20T16:17:56.795Z,59.94
2022-09-20T16:20:24.216Z,57.83
2022-09-20T16:22:51.827Z,60.02
2022-09-20T16:25:19.185Z,59.10
2022-09-20T16:27:46.537Z,59.53
2022-09-20T16:30:14.448Z,58.00
2022-09-20T16:32:43.020Z,58.97
2022-09-20T16:35:11.117Z,58.74
2022-09-20T16:37:39.406Z,59.24
2022-09-20T16:40:08.188Z,58.95
2022-09-20T16:42:35.599Z,61.18
2022-09-20T16:45:03.558Z,61.58
2022-09-20T16:47:30.969Z,62.80
2022-09-20T16:49:58.571Z,61.88
2022-09-20T16:52:26.495Z,62.09
2022-09-20T16:54:53.830Z,61.87
2022-09-20T16:57:22.571Z,61.13
2022-09-20T16:59:51.860Z,61.38
2022-09-20T17:02:19.204Z,59.96
2022-09-20T17:04:46.587Z,61.06
2022-09-20T17:07:14.246Z,60.96
2022-09-20T17:09:41.665Z,60.81
2022-09-20T17:12:09.645Z,61.24
2022-09-20T17:14:37.296Z,60.04
2022-09-20T17:17:04.721Z,60.20
2022-09-20T17:19:32.259Z,60.78
2022-09-20T17:22:00.172Z,60.40
2022-09-20T17:24:30.647Z,61.06
2022-09-20T17:26:59.189Z,61.86
2022-09-20T17:29:27.646Z,61.62
2022-09-20T17:31:59.872Z,62.85
2022-09-20T17:34:29.472Z,62.08
2022-09-20T17:36:56.827Z,63.54
2022-09-20T17:39:24.405Z,64.38
2022-09-20T17:41:52.092Z,63.83
2022-09-20T17:44:19.503Z,63.57
2022-09-20T17:46:49.899Z,63.23
2022-09-20T17:49:19.679Z,63.58
2022-09-20T17:51:49.161Z,62.63
2022-09-20T17:54:17.159Z,62.81
2022-09-20T17:56:47.127Z,63.34
2022-09-20T17:59:16.201Z,62.82
2022-09-20T18:01:44.959Z,61.95
2022-09-20T18:04:13.029Z,62.12
2022-09-20T18:06:43.045Z,63.12
2022-09-20T18:09:13.575Z,62.70
2022-09-20T18:11:48.730Z,64.11
2022-09-20T18:14:17.938Z,63.72
2022-09-20T18:16:45.548Z,62.79
2022-09-20T18:19:14.193Z,62.73
2022-09-20T18:21:41.528Z,64.81
2022-09-20T18:24:10.962Z,64.58
2022-09-20T18:26:39.211Z,64.48
2022-09-20T18:29:18.128Z,65.27
2022-09-20T18:31:54.536Z,65.72
2022-09-20T18:34:23.726Z,65.68
2022-09-20T18:36:56.081Z,65.14
2022-09-20T18:39:25.542Z,66.20
2022-09-20T18:41:53.550Z,66.00
2022-09-20T18:44:22.343Z,65.41
2022-09-20T18:46:52.336Z,65.19
2022-09-20T18:49:21.528Z,65.30
2022-09-20T18:51:49.752Z,64.80
2022-09-20T18:54:17.706Z,65.09
2022-09-20T18:56:47.885Z,65.22
2022-09-20T18:59:23.225Z,65.90
2022-09-20T19:01:52.707Z,66.13
2022-09-20T19:04:22.992Z,65.75
2022-09-20T19:06:59.462Z,65.97
2022-09-20T19:09:31.875Z,65.26
2022-09-20T19:12:39.118Z,65.96
2022-09-20T19:15:39.473Z,65.33
2022-09-20T19:18:37.756Z,65.06
2022-09-20T19:21:17.028Z,67.31
2022-09-20T19:24:05.842Z,66.29
2022-09-20T19:26:44.171Z,65.83
2022-09-20T19:29:19.430Z,65.18
2022-09-20T19:31:53.550Z,64.81
2022-09-20T19:34:23.476Z,65.59
2022-09-20T19:37:05.896Z,65.12
2022-09-20T19:39:33.394Z,65.33
2022-09-20T19:42:14.765Z,67.21
2022-09-20T19:44:59.696Z,65.10
2022-09-20T19:47:38.861Z,65.10
2022-09-20T19:50:34.395Z,66.62
2022-09-20T19:53:05.094Z,66.60
2022-09-20T19:55:34.948Z,67.75
2022-09-20T19:58:02.564Z,68.10
2022-09-20T20:00:31.393Z,68.27
2022-09-20T20:02:59.302Z,65.48
2022-09-20T20:05:27.767Z,66.50
2022-09-20T20:08:14.929Z,67.85
2022-09-20T20:10:56.555Z,66.37
2022-09-20T20:14:03.550Z,67.06
2022-09-20T20:16:52.883Z,68.03
2022-09-20T20:19:39.701Z,67.53
2022-09-20T20:22:22.522Z,68.62
2022-09-20T20:24:51.814Z,66.71
2022-09-20T20:27:20.714Z,66.03
2022-09-20T20:29:49.284Z,65.12
2022-09-20T20:32:16.944Z,65.31
2022-09-20T20:34:44.603Z,66.39
2022-09-20T20:37:12.433Z,68.37
2022-09-20T20:39:39.821Z,67.10
2022-09-20T20:42:09.974Z,67.18
2022-09-20T20:44:37.336Z,65.90
2022-09-20T20:47:06.164Z,65.99
2022-09-20T20:49:38.509Z,66.25
2022-09-20T20:52:05.950Z,65.98
2022-09-20T20:54:33.596Z,67.62
2022-09-20T20:57:03.316Z,66.72
2022-09-20T20:59:31.059Z,67.36
2022-09-20T21:01:58.932Z,66.65
2022-09-20T21:04:27.520Z,67.67
2022-09-20T21:06:55.002Z,66.89
2022-09-20T21:09:22.779Z,68.22
2022-09-20T21:11:50.107Z,69.09
2022-09-20T21:14:17.448Z,68.21
2022-09-20T21:16:45.522Z,69.46
2022-09-20T21:19:18.191Z,69.19
2022-09-20T21:21:47.859Z,68.41
2022-09-20T21:24:17.387Z,68.54
2022-09-20T21:26:46.502Z,69.49
2022-09-20T21:29:15.175Z,67.77
2022-09-20T21:31:44.257Z,67.21
2022-09-20T21:34:13.012Z,67.69
2022-09-20T21:36:44.828Z,67.88
2022-09-20T21:39:12.670Z,67.43
2022-09-20T21:41:40.424Z,67.75
2022-09-20T21:44:09.937Z,68.85
2022-09-20T21:46:40.230Z,67.80
2022-09-20T21:49:09.879Z,66.13
2022-09-20T21:51:38.516Z,67.14
2022-09-20T21:54:06.026Z,71.30
2022-09-20T21:56:35.912Z,68.40
2022-09-20T21:59:04.463Z,67.63
2022-09-20T22:01:34.907Z,66.88
2022-09-20T22:04:12.271Z,69.04
2022-09-20T22:06:41.477Z,67.84
2022-09-20T22:09:13.982Z,67.21
2022-09-20T22:11:46.271Z,67.91
2022-09-20T22:14:15.303Z,70.07
2022-09-20T22:16:44.075Z,67.78
2022-09-20T22:19:13.603Z,69.40
2022-09-20T22:21:48.829Z,69.35
2022-09-20T22:24:16.959Z,68.96
2022-09-20T22:26:45.739Z,69.15
2022-09-20T22:29:13.271Z,68.79
2022-09-20T22:31:45.227Z,69.53
2022-09-20T22:34:18.395Z,69.29
2022-09-20T22:36:45.979Z,67.46
2022-09-20T22:39:13.973Z,66.79
2022-09-20T22:41:42.569Z,67.42
2022-09-20T22:44:10.479Z,68.65
2022-09-20T22:46:38.580Z,69.58
2022-09-20T22:49:06.688Z,69.06
2022-09-20T22:51:34.574Z,68.80
2022-09-20T22:54:07.715Z,67.25
2022-09-20T22:56:36.283Z,68.05
2022-09-20T22:59:07.929Z,69.57
2022-09-20T23:01:37.964Z,68.51
2022-09-20T23:04:08.500Z,68.77
2022-09-20T23:06:54.485Z,69.94
2022-09-20T23:09:25.002Z,69.04
2022-09-20T23:11:52.604Z,68.25
2022-09-20T23:14:21.665Z,68.94
2022-09-20T23:16:49.680Z,68.92
2022-09-20T23:19:17.459Z,69.12
2022-09-20T23:21:45.291Z,69.26
2022-09-20T23:24:14.389Z,70.70
2022-09-20T23:26:43.794Z,69.64
2022-09-20T23:29:15.731Z,70.73
2022-09-20T23:31:46.494Z,71.15
2022-09-20T23:34:15.516Z,71.53
2022-09-20T23:36:43.711Z,72.18
2022-09-20T23:39:11.959Z,71.42
2022-09-20T23:41:39.686Z,70.53
2022-09-20T23:44:09.736Z,69.87
2022-09-20T23:46:37.719Z,69.76
2022-09-20T23:49:06.499Z,69.74
2022-09-20T23:51:35.397Z,69.01
2022-09-20T23:54:03.926Z,70.20
2022-09-20T23:56:31.341Z,70.53
2022-09-20T23:58:58.936Z,69.67
